Jacksonville, Pennsylvania
Current Conditions -  °F | °C
As of 5:54 PM on Thursday 23 Oct 2014 (Local Time) from KRDG Reporting Station
Overcast Overcast  
Wind Chill: 55°   Ceiling: 5500
Heat Index: 55°   Visibility: 10mi
Dew Point: 43°   Wind: 13mph
Humidity: 64%   Direction: 350°N
Pressure: 29.84"   Gusts: 24mph
Location:  40.6329°N, 75.8768°W
Report Text: KRDG 232154Z AUTO 35011G21KT 10SM FEW031 OVC055 13/06 A2984 RMK AO2 SLP109 T01280061
Loading
Personal Weather Stations






























Interactive Weather Map
Tropical Storm Tracking
New forecast layout! Learn more

10-Day Weather Forecast

Advertisements
Track Severe Weather on mobile